Time;durP1;ratioP1;P1;durP2;ratioP2;P2;SDS_P1;SDS_P2;PMS_P1;PMS_P2;Temp;Humidity;BMP_temperature;BMP_pressure;BME280_temperature;BME280_humidity;BME280_pressure;Samples;Min_cycle;Max_cycle;Signal;HPM_P1;HPM_P2
2021/11/26 00:01:10;;;;;;;18.15;16.20;;;;;;;;;;5002887;28;86950;-57
2021/11/26 00:03:38;;;;;;;21.60;15.50;;;;;;;;;;5002122;28;88753;-57
2021/11/26 00:06:05;;;;;;;21.25;16.15;;;;;;;;;;5002643;28;88458;-57
2021/11/26 00:08:32;;;;;;;19.83;17.27;;;;;;;;;;5001764;28;86847;-58
2021/11/26 00:10:59;;;;;;;20.88;14.55;;;;;;;;;;5002593;28;86854;-57
2021/11/26 00:13:30;;;;;;;17.55;15.05;;;;;;;;;;5000763;28;88648;-58
2021/11/26 00:16:03;;;;;;;18.00;15.65;;;;;;;;;;5002058;28;89281;-57
2021/11/26 00:18:35;;;;;;;22.88;17.48;;;;;;;;;;5001762;28;86869;-58
2021/11/26 00:21:02;;;;;;;22.80;16.83;;;;;;;;;;4982653;28;86956;-57
2021/11/26 00:23:29;;;;;;;26.13;17.45;;;;;;;;;;4991093;28;88986;-57
2021/11/26 00:25:56;;;;;;;20.15;17.08;;;;;;;;;;5002023;28;88666;-57
2021/11/26 00:28:23;;;;;;;18.98;15.55;;;;;;;;;;5001838;28;86696;-58
2021/11/26 00:30:51;;;;;;;21.15;17.73;;;;;;;;;;5002141;28;86115;-59
2021/11/26 00:33:18;;;;;;;20.20;15.65;;;;;;;;;;5001994;28;87866;-58
2021/11/26 00:35:45;;;;;;;19.27;15.80;;;;;;;;;;5001338;28;88552;-56
2021/11/26 00:38:12;;;;;;;20.10;15.07;;;;;;;;;;5001599;28;87660;-58
2021/11/26 00:40:39;;;;;;;19.27;16.40;;;;;;;;;;5001707;28;87026;-58
2021/11/26 00:43:06;;;;;;;19.27;16.38;;;;;;;;;;5001892;28;87722;-59
2021/11/26 00:45:33;;;;;;;21.48;16.80;;;;;;;;;;5001373;28;88646;-59
2021/11/26 00:48:00;;;;;;;20.17;16.27;;;;;;;;;;5001898;28;86725;-58
2021/11/26 00:50:27;;;;;;;23.35;19.30;;;;;;;;;;5001714;28;86659;-58
2021/11/26 00:52:54;;;;;;;22.30;17.85;;;;;;;;;;5001768;28;87719;-59
2021/11/26 00:55:21;;;;;;;24.40;17.83;;;;;;;;;;5005559;28;88721;-59
2021/11/26 00:57:48;;;;;;;26.52;17.33;;;;;;;;;;5004488;28;86871;-58
2021/11/26 01:00:17;;;;;;;24.77;18.52;;;;;;;;;;5005722;28;86904;-59
2021/11/26 01:02:44;;;;;;;22.75;16.08;;;;;;;;;;5004211;28;89744;-58
2021/11/26 01:05:12;;;;;;;25.25;18.80;;;;;;;;;;5005094;28;89663;-58
2021/11/26 01:07:40;;;;;;;25.65;17.95;;;;;;;;;;5004810;28;86906;-59
2021/11/26 01:10:11;;;;;;;28.20;20.38;;;;;;;;;;5005478;28;87001;-58
2021/11/26 01:12:39;;;;;;;26.67;18.95;;;;;;;;;;5004682;28;88701;-59
2021/11/26 01:15:08;;;;;;;25.40;18.08;;;;;;;;;;5005340;28;87384;-59
2021/11/26 01:17:37;;;;;;;22.73;16.50;;;;;;;;;;5004753;28;86879;-58
2021/11/26 01:20:05;;;;;;;28.17;19.05;;;;;;;;;;5005582;28;86037;-58
2021/11/26 01:22:33;;;;;;;21.48;17.13;;;;;;;;;;5004994;28;88774;-58
2021/11/26 01:25:00;;;;;;;28.58;20.83;;;;;;;;;;5004527;28;88598;-58
2021/11/26 01:27:27;;;;;;;24.35;18.98;;;;;;;;;;5004146;28;87741;-58
2021/11/26 01:29:54;;;;;;;28.00;19.10;;;;;;;;;;5004751;28;87084;-58
2021/11/26 01:32:20;;;;;;;27.52;19.65;;;;;;;;;;5004790;28;88646;-58
2021/11/26 01:34:48;;;;;;;24.38;18.60;;;;;;;;;;5004163;28;88486;-60
2021/11/26 01:37:15;;;;;;;28.30;18.52;;;;;;;;;;5004961;28;87008;-59
2021/11/26 01:39:42;;;;;;;26.38;19.92;;;;;;;;;;5004347;28;86985;-58
2021/11/26 01:42:09;;;;;;;26.98;17.98;;;;;;;;;;5004796;28;89868;-58
2021/11/26 01:44:36;;;;;;;22.33;17.88;;;;;;;;;;5004853;28;88556;-59
2021/11/26 01:47:03;;;;;;;27.75;19.92;;;;;;;;;;5004525;28;86615;-59
2021/11/26 01:49:30;;;;;;;24.98;19.08;;;;;;;;;;5005001;28;87811;-58
2021/11/26 01:51:57;;;;;;;27.13;19.10;;;;;;;;;;5003663;28;89570;-59
2021/11/26 01:54:24;;;;;;;29.23;20.02;;;;;;;;;;5004595;28;88524;-58
2021/11/26 01:56:51;;;;;;;22.42;17.65;;;;;;;;;;5003944;28;86783;-58
2021/11/26 01:59:18;;;;;;;26.02;19.75;;;;;;;;;;5003994;28;87041;-59
2021/11/26 02:01:45;;;;;;;26.10;19.20;;;;;;;;;;5003590;28;88785;-58
2021/11/26 02:04:12;;;;;;;27.90;19.13;;;;;;;;;;5004507;28;87542;-59
2021/11/26 02:06:39;;;;;;;28.00;19.65;;;;;;;;;;5004134;28;86875;-58
2021/11/26 02:09:07;;;;;;;29.42;21.67;;;;;;;;;;5005081;28;86080;-58
2021/11/26 02:11:34;;;;;;;31.23;21.63;;;;;;;;;;5013435;28;88996;-58
2021/11/26 02:14:01;;;;;;;27.02;18.90;;;;;;;;;;4999106;28;88572;-59
2021/11/26 02:16:28;;;;;;;29.92;20.95;;;;;;;;;;5003119;28;88235;-59
2021/11/26 02:18:55;;;;;;;28.85;21.20;;;;;;;;;;5003980;28;86825;-58
2021/11/26 02:21:22;;;;;;;27.17;19.48;;;;;;;;;;5003927;28;88712;-58
2021/11/26 02:23:50;;;;;;;27.25;19.98;;;;;;;;;;5003315;28;88146;-58
2021/11/26 02:26:17;;;;;;;26.38;20.75;;;;;;;;;;5004214;28;87825;-58
2021/11/26 02:28:44;;;;;;;26.58;20.15;;;;;;;;;;5003435;28;87640;-58
2021/11/26 02:31:11;;;;;;;29.10;19.42;;;;;;;;;;5003993;28;88819;-58
2021/11/26 02:33:38;;;;;;;24.75;19.42;;;;;;;;;;5003866;28;88472;-58
2021/11/26 02:36:05;;;;;;;24.95;19.85;;;;;;;;;;5004209;28;86858;-58
2021/11/26 02:38:32;;;;;;;26.42;18.95;;;;;;;;;;5003901;28;86951;-58
2021/11/26 02:40:59;;;;;;;30.30;18.95;;;;;;;;;;5002996;28;88738;-58
2021/11/26 02:43:26;;;;;;;22.95;18.42;;;;;;;;;;5003432;28;88450;-59
2021/11/26 02:45:53;;;;;;;28.27;18.17;;;;;;;;;;5003516;28;86846;-58
2021/11/26 02:48:21;;;;;;;24.52;18.55;;;;;;;;;;5003863;28;86793;-58
2021/11/26 02:50:48;;;;;;;25.63;18.63;;;;;;;;;;5002997;28;88588;-58
2021/11/26 02:53:16;;;;;;;29.92;22.13;;;;;;;;;;5003603;28;88904;-58
2021/11/26 02:55:43;;;;;;;40.45;20.40;;;;;;;;;;5003011;28;86942;-58
2021/11/26 02:58:10;;;;;;;24.05;18.65;;;;;;;;;;5003121;28;86141;-58
2021/11/26 03:00:41;;;;;;;27.73;18.45;;;;;;;;;;5002682;28;87812;-58
2021/11/26 03:03:08;;;;;;;28.05;21.45;;;;;;;;;;5003440;28;88726;-59
2021/11/26 03:05:36;;;;;;;26.15;19.15;;;;;;;;;;5002936;28;87945;-59
2021/11/26 03:08:03;;;;;;;27.55;17.75;;;;;;;;;;5003184;28;86941;-58
2021/11/26 03:10:30;;;;;;;26.35;19.75;;;;;;;;;;5003196;28;88592;-58
2021/11/26 03:13:01;;;;;;;28.58;22.00;;;;;;;;;;5002570;28;87517;-58
2021/11/26 03:15:28;;;;;;;25.98;17.52;;;;;;;;;;5003384;28;86790;-58
2021/11/26 03:17:56;;;;;;;27.60;19.85;;;;;;;;;;5002141;28;86860;-58
2021/11/26 03:20:25;;;;;;;35.47;21.25;;;;;;;;;;5003145;28;87591;-58
2021/11/26 03:22:52;;;;;;;30.30;20.80;;;;;;;;;;4983009;28;88430;-58
2021/11/26 03:25:19;;;;;;;27.20;20.75;;;;;;;;;;4983090;28;86818;-58
2021/11/26 03:27:47;;;;;;;24.73;18.83;;;;;;;;;;4992441;28;87633;-58
2021/11/26 03:30:16;;;;;;;26.70;18.25;;;;;;;;;;5002556;28;89809;-58
2021/11/26 03:32:44;;;;;;;29.73;20.75;;;;;;;;;;5002928;28;89565;-58
2021/11/26 03:35:12;;;;;;;23.92;18.13;;;;;;;;;;5002961;28;87188;-58
2021/11/26 03:37:39;;;;;;;27.10;21.08;;;;;;;;;;5003188;28;86972;-59
2021/11/26 03:40:08;;;;;;;24.23;17.92;;;;;;;;;;5002768;28;88672;-58
2021/11/26 03:42:36;;;;;;;27.02;20.60;;;;;;;;;;5002770;28;88208;-59
2021/11/26 03:45:04;;;;;;;29.38;22.45;;;;;;;;;;5002632;28;87860;-58
2021/11/26 03:47:31;;;;;;;27.23;19.98;;;;;;;;;;5003440;28;86235;-59
2021/11/26 03:49:58;;;;;;;30.75;21.25;;;;;;;;;;5002313;28;88601;-58
2021/11/26 03:52:25;;;;;;;29.77;22.48;;;;;;;;;;5002726;28;87820;-58
2021/11/26 03:54:52;;;;;;;31.48;20.30;;;;;;;;;;5002053;28;88515;-59
2021/11/26 03:57:19;;;;;;;31.00;21.75;;;;;;;;;;5002663;28;86738;-58
2021/11/26 03:59:46;;;;;;;33.70;22.05;;;;;;;;;;5002594;28;88674;-58
2021/11/26 04:02:13;;;;;;;27.67;20.13;;;;;;;;;;5001626;28;87558;-58
2021/11/26 04:04:40;;;;;;;31.77;22.30;;;;;;;;;;5002524;28;86839;-58
2021/11/26 04:07:07;;;;;;;29.48;20.80;;;;;;;;;;5002401;28;86775;-58
2021/11/26 04:09:34;;;;;;;25.42;19.40;;;;;;;;;;5002685;28;88894;-58
2021/11/26 04:12:01;;;;;;;31.50;21.30;;;;;;;;;;5001963;28;88631;-58
2021/11/26 04:14:39;;;;;;;26.88;19.85;;;;;;;;;;5002589;28;86954;-58
2021/11/26 04:17:09;;;;;;;30.77;20.15;;;;;;;;;;5001791;28;86959;-57
2021/11/26 04:19:38;;;;;;;27.27;19.73;;;;;;;;;;5002095;28;88563;-57
2021/11/26 04:22:05;;;;;;;24.02;19.02;;;;;;;;;;5001754;28;89347;-57
2021/11/26 04:24:32;;;;;;;24.02;19.48;;;;;;;;;;5002271;28;86853;-58
2021/11/26 04:26:59;;;;;;;26.50;19.25;;;;;;;;;;5002185;28;86880;-57
2021/11/26 04:29:26;;;;;;;26.58;20.30;;;;;;;;;;5001015;28;88508;-57
2021/11/26 04:31:53;;;;;;;23.90;18.60;;;;;;;;;;5002296;28;88618;-58
2021/11/26 04:34:23;;;;;;;32.40;17.08;;;;;;;;;;5002144;28;87245;-58
2021/11/26 04:36:51;;;;;;;16.13;13.00;;;;;;;;;;5002840;28;86121;-57
2021/11/26 04:39:17;;;;;;;16.25;11.45;;;;;;;;;;5001656;28;88620;-58
2021/11/26 04:41:44;;;;;;;14.18;11.88;;;;;;;;;;5001995;28;87666;-57
2021/11/26 04:44:11;;;;;;;16.13;11.90;;;;;;;;;;5001186;28;87829;-58
2021/11/26 04:46:38;;;;;;;14.85;11.23;;;;;;;;;;5002133;28;86917;-58
2021/11/26 04:49:06;;;;;;;15.27;11.38;;;;;;;;;;5001822;28;88684;-58
2021/11/26 04:51:34;;;;;;;14.65;12.02;;;;;;;;;;5001900;28;88446;-58
2021/11/26 04:54:01;;;;;;;14.57;10.93;;;;;;;;;;5001581;28;86999;-58
2021/11/26 04:56:29;;;;;;;14.65;9.90;;;;;;;;;;5001983;28;86880;-57
2021/11/26 04:58:56;;;;;;;10.90;9.18;;;;;;;;;;5001942;28;87790;-59
2021/11/26 05:01:23;;;;;;;8.68;6.68;;;;;;;;;;5002467;28;88535;-58
2021/11/26 05:03:51;;;;;;;6.28;5.60;;;;;;;;;;5002902;28;86793;-58
2021/11/26 05:06:19;;;;;;;5.82;5.05;;;;;;;;;;5002469;28;87731;-59
2021/11/26 05:08:46;;;;;;;5.82;4.88;;;;;;;;;;5001893;28;89741;-58
2021/11/26 05:11:13;;;;;;;6.45;5.10;;;;;;;;;;5001820;28;89438;-59
2021/11/26 05:13:46;;;;;;;6.50;5.72;;;;;;;;;;5002553;28;86835;-58
2021/11/26 05:16:14;;;;;;;6.95;5.43;;;;;;;;;;5002150;28;86914;-58
2021/11/26 05:18:42;;;;;;;6.78;5.50;;;;;;;;;;5001953;28;88685;-58
2021/11/26 05:21:09;;;;;;;6.40;5.35;;;;;;;;;;5001719;28;88270;-59
2021/11/26 05:23:36;;;;;;;7.20;5.60;;;;;;;;;;5002420;28;87762;-59
2021/11/26 05:26:04;;;;;;;5.82;5.30;;;;;;;;;;5002942;28;86155;-59
2021/11/26 05:28:32;;;;;;;8.00;5.78;;;;;;;;;;5001368;28;87620;-58
2021/11/26 05:30:59;;;;;;;7.32;5.20;;;;;;;;;;5002161;28;88221;-59
2021/11/26 05:33:26;;;;;;;5.03;4.53;;;;;;;;;;5001734;28;87772;-59
2021/11/26 05:35:53;;;;;;;3.60;3.28;;;;;;;;;;5002640;28;86867;-58
2021/11/26 05:38:20;;;;;;;3.50;3.20;;;;;;;;;;5001783;28;87659;-58
2021/11/26 05:40:47;;;;;;;3.80;3.45;;;;;;;;;;5004575;28;86858;-58
2021/11/26 05:43:15;;;;;;;4.25;3.72;;;;;;;;;;5005052;28;86785;-58
2021/11/26 05:45:42;;;;;;;2.78;2.58;;;;;;;;;;5005553;28;86858;-58
2021/11/26 05:48:09;;;;;;;3.08;2.65;;;;;;;;;;5004817;28;87696;-59
2021/11/26 05:50:40;;;;;;;3.58;3.28;;;;;;;;;;5005636;28;88613;-59
2021/11/26 05:53:06;;;;;;;5.05;3.45;;;;;;;;;;5005644;28;86769;-58
2021/11/26 05:55:33;;;;;;;4.25;3.40;;;;;;;;;;5005433;28;87046;-58
2021/11/26 05:58:01;;;;;;;3.47;3.17;;;;;;;;;;5002080;28;89652;-58
2021/11/26 06:00:29;;;;;;;3.42;3.08;;;;;;;;;;5003704;28;89574;-57
2021/11/26 06:02:56;;;;;;;4.18;3.83;;;;;;;;;;5004738;28;86863;-58
2021/11/26 06:05:24;;;;;;;3.58;3.10;;;;;;;;;;5003637;28;86962;-57
2021/11/26 06:07:52;;;;;;;3.72;3.08;;;;;;;;;;5004214;28;88618;-58
2021/11/26 06:10:20;;;;;;;3.75;3.35;;;;;;;;;;4999656;28;88487;-59
2021/11/26 06:12:48;;;;;;;2.60;2.40;;;;;;;;;;5003893;28;87121;-59
2021/11/26 06:15:18;;;;;;;2.88;2.58;;;;;;;;;;4985856;28;86174;-60
2021/11/26 06:17:45;;;;;;;3.63;3.20;;;;;;;;;;5004009;28;88633;-60
2021/11/26 06:20:13;;;;;;;3.80;3.40;;;;;;;;;;5003119;28;88799;-59
2021/11/26 06:22:40;;;;;;;3.83;3.42;;;;;;;;;;5003525;28;87854;-59
2021/11/26 06:25:09;;;;;;;4.15;3.75;;;;;;;;;;5004344;28;88023;-59
2021/11/26 06:27:37;;;;;;;4.82;3.33;;;;;;;;;;5002453;28;88726;-58
2021/11/26 06:30:05;;;;;;;2.95;2.75;;;;;;;;;;5003145;28;88365;-59
2021/11/26 06:32:32;;;;;;;4.55;4.05;;;;;;;;;;5003356;28;86827;-59
2021/11/26 06:34:59;;;;;;;2.85;2.65;;;;;;;;;;5002832;28;87005;-58
2021/11/26 06:37:26;;;;;;;3.47;3.17;;;;;;;;;;5003184;28;88626;-58
2021/11/26 06:39:53;;;;;;;3.80;3.50;;;;;;;;;;5004093;28;88627;-58
2021/11/26 06:42:20;;;;;;;5.65;3.17;;;;;;;;;;5003479;28;86834;-58
2021/11/26 06:44:47;;;;;;;4.57;4.13;;;;;;;;;;5002482;28;86865;-59
2021/11/26 06:47:14;;;;;;;3.75;3.45;;;;;;;;;;5001662;28;89865;-58
2021/11/26 06:49:42;;;;;;;4.15;3.75;;;;;;;;;;5001891;28;89670;-58
2021/11/26 06:52:09;;;;;;;4.32;3.92;;;;;;;;;;5001299;28;86928;-62
2021/11/26 06:54:36;;;;;;;3.85;3.55;;;;;;;;;;5002760;28;86911;-58
2021/11/26 06:57:03;;;;;;;4.22;3.90;;;;;;;;;;5002814;28;86908;-58
2021/11/26 06:59:30;;;;;;;4.00;3.70;;;;;;;;;;5002833;28;88405;-58
2021/11/26 07:01:57;;;;;;;3.58;3.28;;;;;;;;;;5004053;28;87069;-58
2021/11/26 07:04:24;;;;;;;3.70;3.40;;;;;;;;;;5004156;28;86192;-58
2021/11/26 07:06:51;;;;;;;4.05;3.70;;;;;;;;;;5003764;28;87699;-58
2021/11/26 07:09:18;;;;;;;6.80;3.78;;;;;;;;;;5003423;28;88409;-58
2021/11/26 07:11:46;;;;;;;3.63;2.92;;;;;;;;;;5003601;28;87950;-57
2021/11/26 07:14:33;;;;;;;3.90;3.53;;;;;;;;;;5003870;28;86873;-58
2021/11/26 07:17:00;;;;;;;4.05;3.67;;;;;;;;;;5003901;28;88853;-59
2021/11/26 07:19:27;;;;;;;2.83;2.63;;;;;;;;;;5003624;28;88751;-59
2021/11/26 07:21:54;;;;;;;4.78;4.22;;;;;;;;;;5003792;28;86820;-59
2021/11/26 07:24:21;;;;;;;3.47;3.17;;;;;;;;;;5004116;28;87091;-59
2021/11/26 07:26:48;;;;;;;3.00;2.72;;;;;;;;;;5003161;28;88953;-59
2021/11/26 07:29:15;;;;;;;3.03;2.80;;;;;;;;;;5003901;28;88338;-59
2021/11/26 07:31:42;;;;;;;2.80;2.60;;;;;;;;;;5003408;28;86931;-59
2021/11/26 07:34:09;;;;;;;3.15;2.95;;;;;;;;;;5003702;28;87386;-59
2021/11/26 07:36:36;;;;;;;3.55;3.25;;;;;;;;;;5002352;28;89605;-59
2021/11/26 07:39:04;;;;;;;3.67;3.30;;;;;;;;;;5003614;28;89495;-58
2021/11/26 07:41:31;;;;;;;4.28;3.88;;;;;;;;;;5003950;28;86810;-59
2021/11/26 07:43:58;;;;;;;4.82;4.32;;;;;;;;;;5003536;28;87015;-58
2021/11/26 07:46:25;;;;;;;4.25;3.63;;;;;;;;;;5002813;28;88660;-58
2021/11/26 07:48:51;;;;;;;4.78;4.28;;;;;;;;;;5003091;28;88517;-59
2021/11/26 07:51:18;;;;;;;4.28;3.88;;;;;;;;;;5003322;28;87243;-58
2021/11/26 07:53:45;;;;;;;4.28;3.92;;;;;;;;;;5003494;28;86206;-58
2021/11/26 07:56:12;;;;;;;4.00;3.70;;;;;;;;;;5001438;28;88613;-58
2021/11/26 07:58:39;;;;;;;4.63;4.15;;;;;;;;;;4999724;28;88643;-58
2021/11/26 08:01:06;;;;;;;3.92;3.55;;;;;;;;;;5000451;28;88200;-58
2021/11/26 08:03:33;;;;;;;4.38;3.90;;;;;;;;;;5000962;28;87055;-58
2021/11/26 08:06:04;;;;;;;6.45;4.25;;;;;;;;;;5001560;28;88875;-58
2021/11/26 08:08:31;;;;;;;4.13;3.72;;;;;;;;;;5002499;28;88686;-58
2021/11/26 08:10:58;;;;;;;5.25;4.18;;;;;;;;;;5002758;28;86928;-59
2021/11/26 08:13:25;;;;;;;6.50;5.15;;;;;;;;;;5003420;28;86937;-58
2021/11/26 08:15:51;;;;;;;6.85;5.38;;;;;;;;;;5002550;28;87685;-59
2021/11/26 08:18:18;;;;;;;6.45;4.85;;;;;;;;;;5003296;28;88721;-58
2021/11/26 08:20:45;;;;;;;5.20;4.55;;;;;;;;;;5002615;28;87058;-58
2021/11/26 08:23:12;;;;;;;6.50;4.97;;;;;;;;;;5003106;28;86947;-58
2021/11/26 08:25:40;;;;;;;5.95;4.25;;;;;;;;;;5001767;28;89879;-58
2021/11/26 08:28:07;;;;;;;5.72;5.05;;;;;;;;;;5002299;28;89386;-58
2021/11/26 08:30:35;;;;;;;5.25;4.20;;;;;;;;;;5003136;28;86803;-58
2021/11/26 08:33:02;;;;;;;5.25;4.70;;;;;;;;;;5003155;28;86960;-58
2021/11/26 08:35:33;;;;;;;6.20;5.57;;;;;;;;;;5002810;28;87677;-58
2021/11/26 08:38:00;;;;;;;3.90;3.40;;;;;;;;;;5002319;28;88428;-60
2021/11/26 08:40:27;;;;;;;6.05;4.93;;;;;;;;;;5003152;28;86993;-59
2021/11/26 08:42:54;;;;;;;8.15;5.18;;;;;;;;;;5002805;28;86173;-59
2021/11/26 08:45:26;;;;;;;5.63;5.03;;;;;;;;;;5002780;28;88776;-58
2021/11/26 08:47:54;;;;;;;5.38;4.85;;;;;;;;;;5002068;28;88347;-58
2021/11/26 08:50:22;;;;;;;5.45;4.35;;;;;;;;;;5002377;28;87793;-58
2021/11/26 08:52:49;;;;;;;7.25;4.80;;;;;;;;;;5002167;28;87014;-58
2021/11/26 08:55:17;;;;;;;6.43;5.82;;;;;;;;;;5002558;28;88622;-58
2021/11/26 08:57:53;;;;;;;6.03;4.78;;;;;;;;;;5001669;28;88309;-58
2021/11/26 09:00:26;;;;;;;6.45;4.80;;;;;;;;;;5002425;28;86936;-59
2021/11/26 09:02:54;;;;;;;5.20;4.70;;;;;;;;;;5002850;28;86595;-58
2021/11/26 09:05:21;;;;;;;7.05;5.35;;;;;;;;;;5002179;28;88533;-58
2021/11/26 09:07:48;;;;;;;6.82;5.15;;;;;;;;;;5002769;28;87541;-59
2021/11/26 09:10:17;;;;;;;27.45;21.20;;;;;;;;;;5001659;28;86870;-59
2021/11/26 09:12:45;;;;;;;11.57;8.98;;;;;;;;;;5001929;28;86886;-59
2021/11/26 09:15:13;;;;;;;6.35;5.13;;;;;;;;;;5002885;28;89778;-59
2021/11/26 09:17:40;;;;;;;6.00;4.35;;;;;;;;;;5005902;28;89338;-59
2021/11/26 09:20:08;;;;;;;7.85;5.53;;;;;;;;;;5005407;28;86923;-59
2021/11/26 09:22:35;;;;;;;5.70;5.20;;;;;;;;;;5006235;28;86902;-58
2021/11/26 09:25:04;;;;;;;5.93;5.03;;;;;;;;;;5005341;28;88652;-59
2021/11/26 09:27:31;;;;;;;5.57;5.03;;;;;;;;;;5005068;28;88395;-59
2021/11/26 09:29:58;;;;;;;8.43;5.68;;;;;;;;;;5005881;28;86912;-59
2021/11/26 09:32:26;;;;;;;5.70;4.80;;;;;;;;;;5005432;28;86151;-58
2021/11/26 09:34:53;;;;;;;5.53;4.22;;;;;;;;;;5005609;28;88348;-59
2021/11/26 09:37:20;;;;;;;5.60;4.05;;;;;;;;;;5005043;28;88155;-58
2021/11/26 09:39:46;;;;;;;4.35;3.47;;;;;;;;;;5005093;28;88008;-59
2021/11/26 09:42:14;;;;;;;4.88;3.70;;;;;;;;;;5005271;28;88249;-60
2021/11/26 09:44:44;;;;;;;3.50;3.20;;;;;;;;;;5005536;28;88825;-58
2021/11/26 09:47:11;;;;;;;11.05;4.28;;;;;;;;;;5005289;28;88397;-60
2021/11/26 09:49:38;;;;;;;4.18;3.70;;;;;;;;;;5005763;28;86661;-59
2021/11/26 09:52:05;;;;;;;3.88;3.38;;;;;;;;;;5004933;28;87007;-59
2021/11/26 09:54:40;;;;;;;6.43;3.80;;;;;;;;;;5005369;28;88669;-59
2021/11/26 09:57:08;;;;;;;3.85;3.55;;;;;;;;;;5005418;28;88461;-58
2021/11/26 09:59:40;;;;;;;3.33;3.03;;;;;;;;;;5004644;28;86880;-59
2021/11/26 10:02:11;;;;;;;3.47;3.15;;;;;;;;;;5005472;28;86767;-59
2021/11/26 10:04:38;;;;;;;2.63;2.42;;;;;;;;;;5004348;28;90714;-59
2021/11/26 10:07:06;;;;;;;3.03;2.65;;;;;;;;;;5004925;28;89322;-58
2021/11/26 10:09:35;;;;;;;2.28;2.10;;;;;;;;;;5004959;28;86770;-58
2021/11/26 10:12:06;;;;;;;2.20;2.00;;;;;;;;;;5005284;28;86912;-58
2021/11/26 10:14:43;;;;;;;3.78;1.88;;;;;;;;;;5004307;28;88818;-59
2021/11/26 10:17:16;;;;;;;2.38;2.13;;;;;;;;;;5005355;28;87416;-58
2021/11/26 10:19:58;;;;;;;4.07;1.83;;;;;;;;;;5004631;28;86868;-57
2021/11/26 10:22:31;;;;;;;2.58;2.13;;;;;;;;;;5005103;28;86166;-56
2021/11/26 10:24:58;;;;;;;2.45;2.03;;;;;;;;;;5003979;28;88743;-56
2021/11/26 10:27:44;;;;;;;3.78;2.58;;;;;;;;;;5002793;28;88607;-54
2021/11/26 10:30:34;;;;;;;5.43;3.45;;;;;;;;;;5004195;28;87815;-57
2021/11/26 10:33:07;;;;;;;5.70;4.07;;;;;;;;;;5004334;28;87173;-58
2021/11/26 10:35:40;;;;;;;4.13;3.05;;;;;;;;;;5003980;28;88735;-58
2021/11/26 10:38:14;;;;;;;1.67;1.58;;;;;;;;;;5004786;28;87544;-58
2021/11/26 10:40:45;;;;;;;1.90;1.80;;;;;;;;;;5004201;28;87029;-55
2021/11/26 10:43:37;;;;;;;2.33;2.13;;;;;;;;;;5005078;28;87011;-57
2021/11/26 10:59:34;;;;;;;1.60;1.50;;;;;;;;;;5003466;28;89447;-58
2021/11/26 11:02:02;;;;;;;1.60;1.50;;;;;;;;;;5003198;28;86917;-58
2021/11/26 11:04:31;;;;;;;3.30;1.70;;;;;;;;;;5004003;28;86935;-60
2021/11/26 11:07:03;;;;;;;1.67;1.58;;;;;;;;;;5003772;28;88757;-58
2021/11/26 11:09:44;;;;;;;3.88;2.10;;;;;;;;;;5003373;28;88303;-57
2021/11/26 11:12:12;;;;;;;2.75;2.45;;;;;;;;;;5004004;28;86824;-58
2021/11/26 11:14:53;;;;;;;2.08;1.88;;;;;;;;;;5002626;28;86124;-57
2021/11/26 11:17:20;;;;;;;1.85;1.70;;;;;;;;;;5001817;28;88645;-58
2021/11/26 11:19:47;;;;;;;3.30;2.22;;;;;;;;;;5001499;28;88306;-57
2021/11/26 11:22:14;;;;;;;1.50;1.40;;;;;;;;;;4983705;28;87998;-58
2021/11/26 11:24:42;;;;;;;2.75;1.90;;;;;;;;;;4984204;28;87144;-58
2021/11/26 11:27:09;;;;;;;3.03;2.83;;;;;;;;;;5002209;28;88421;-58
2021/11/26 11:29:36;;;;;;;2.63;2.38;;;;;;;;;;5002819;28;88270;-57
2021/11/26 11:32:03;;;;;;;2.25;2.05;;;;;;;;;;5003831;28;86967;-58
2021/11/26 11:34:31;;;;;;;2.80;2.60;;;;;;;;;;5004226;28;86974;-59
2021/11/26 11:36:59;;;;;;;3.10;1.77;;;;;;;;;;4985189;28;88959;-56
2021/11/26 11:39:27;;;;;;;2.40;2.20;;;;;;;;;;4986161;28;88530;-57
2021/11/26 11:41:58;;;;;;;2.50;2.30;;;;;;;;;;5003308;28;87765;-55
2021/11/26 11:44:34;;;;;;;6.93;1.90;;;;;;;;;;5003833;28;86827;-58
2021/11/26 11:47:19;;;;;;;3.20;2.42;;;;;;;;;;5002054;28;88700;-58
2021/11/26 11:49:46;;;;;;;3.67;2.78;;;;;;;;;;5003661;28;89382;-52
2021/11/26 11:52:15;;;;;;;2.53;2.13;;;;;;;;;;4985541;28;86819;-54
2021/11/26 11:54:59;;;;;;;3.35;2.35;;;;;;;;;;5003656;28;86820;-54
2021/11/26 11:57:27;;;;;;;6.90;4.43;;;;;;;;;;5002603;28;88854;-52
2021/11/26 12:00:14;;;;;;;5.40;3.97;;;;;;;;;;5002833;28;88462;-58
2021/11/26 12:02:42;;;;;;;6.25;3.90;;;;;;;;;;5003072;28;86919;-57
2021/11/26 12:05:26;;;;;;;5.22;2.45;;;;;;;;;;5003008;28;86145;-57
2021/11/26 12:08:04;;;;;;;3.03;2.73;;;;;;;;;;5001421;28;88831;-58
2021/11/26 12:10:42;;;;;;;3.42;3.13;;;;;;;;;;5001106;28;88355;-59
2021/11/26 12:13:30;;;;;;;6.07;3.22;;;;;;;;;;4999745;28;87834;-53
2021/11/26 12:16:15;;;;;;;2.80;2.58;;;;;;;;;;4997536;28;86859;-58
2021/11/26 12:18:46;;;;;;;2.63;2.40;;;;;;;;;;5001303;28;87905;-52
2021/11/26 12:21:24;;;;;;;3.55;3.25;;;;;;;;;;5000553;28;87424;-54
2021/11/26 12:24:10;;;;;;;7.72;3.90;;;;;;;;;;4999842;28;87054;-58
2021/11/26 12:26:54;;;;;;;3.33;2.53;;;;;;;;;;4999954;28;87079;-58
2021/11/26 12:29:39;;;;;;;7.30;3.10;;;;;;;;;;4997733;28;88645;-59
2021/11/26 12:32:11;;;;;;;5.38;3.70;;;;;;;;;;4998984;28;88512;-57
2021/11/26 12:34:42;;;;;;;4.28;3.88;;;;;;;;;;5000422;28;86910;-60
2021/11/26 12:37:24;;;;;;;4.63;4.22;;;;;;;;;;5000264;28;87381;-57
2021/11/26 12:39:57;;;;;;;3.83;3.38;;;;;;;;;;4999669;28;88556;-56
2021/11/26 12:42:25;;;;;;;5.03;4.18;;;;;;;;;;4999183;28;89185;-57
2021/11/26 12:44:57;;;;;;;5.65;4.22;;;;;;;;;;5001466;28;87047;-58
2021/11/26 12:47:43;;;;;;;3.53;3.22;;;;;;;;;;4998287;28;86906;-58
2021/11/26 12:53:06;;;;;;;3.92;3.50;;;;;;;;;;5001017;28;88071;-58
2021/11/26 12:55:35;;;;;;;3.95;3.50;;;;;;;;;;4983059;28;86767;-58
2021/11/26 12:58:03;;;;;;;3.80;3.45;;;;;;;;;;4993544;28;86429;-57
2021/11/26 13:00:32;;;;;;;3.90;3.58;;;;;;;;;;5002497;28;87565;-57
2021/11/26 13:03:10;;;;;;;4.78;3.60;;;;;;;;;;5002149;28;88177;-58
2021/11/26 13:05:37;;;;;;;4.55;3.40;;;;;;;;;;5002508;28;87838;-58
2021/11/26 13:08:04;;;;;;;4.70;3.53;;;;;;;;;;5002092;28;86937;-58
2021/11/26 13:10:31;;;;;;;4.53;3.70;;;;;;;;;;5002412;28;88760;-58
2021/11/26 13:13:00;;;;;;;3.65;3.25;;;;;;;;;;5002137;28;88383;-58
2021/11/26 13:15:35;;;;;;;3.25;2.95;;;;;;;;;;5001950;28;87155;-58
2021/11/26 13:18:10;;;;;;;4.15;3.58;;;;;;;;;;5002286;28;86869;-58
2021/11/26 13:20:43;;;;;;;3.17;2.70;;;;;;;;;;4999146;28;88576;-59
2021/11/26 13:23:16;;;;;;;3.60;3.30;;;;;;;;;;5001207;28;88325;-58
2021/11/26 13:25:48;;;;;;;4.78;3.40;;;;;;;;;;5001329;28;86964;-58
2021/11/26 13:28:20;;;;;;;3.05;2.75;;;;;;;;;;5001798;28;86812;-58
2021/11/26 13:31:10;;;;;;;4.03;3.55;;;;;;;;;;5001079;28;89423;-58
2021/11/26 13:33:39;;;;;;;5.72;3.22;;;;;;;;;;5002191;28;90418;-59
2021/11/26 13:36:30;;;;;;;3.20;2.90;;;;;;;;;;5001882;28;86859;-58
2021/11/26 13:39:05;;;;;;;4.90;3.50;;;;;;;;;;4982989;28;86985;-58
2021/11/26 13:41:33;;;;;;;3.70;3.40;;;;;;;;;;4998532;28;89862;-59
2021/11/26 13:44:07;;;;;;;3.30;3.00;;;;;;;;;;4998131;28;88619;-58
2021/11/26 13:46:42;;;;;;;3.30;3.00;;;;;;;;;;4997190;28;87325;-56
2021/11/26 13:49:15;;;;;;;2.97;2.72;;;;;;;;;;4998701;28;86212;-58
2021/11/26 13:51:50;;;;;;;3.75;3.20;;;;;;;;;;4997210;28;88685;-59
2021/11/26 13:54:41;;;;;;;2.67;2.47;;;;;;;;;;4997018;28;88537;-56
2021/11/26 13:57:09;;;;;;;5.88;3.47;;;;;;;;;;4998037;28;88326;-56
2021/11/26 13:59:39;;;;;;;3.83;3.42;;;;;;;;;;4999171;28;87344;-57
2021/11/26 14:02:10;;;;;;;3.42;3.13;;;;;;;;;;5001667;28;88640;-57
2021/11/26 14:04:39;;;;;;;3.88;3.58;;;;;;;;;;5002318;28;88649;-58
2021/11/26 14:07:16;;;;;;;4.65;3.75;;;;;;;;;;5002611;28;86870;-56
2021/11/26 14:09:46;;;;;;;4.28;3.72;;;;;;;;;;5004717;28;86972;-57
2021/11/26 14:12:18;;;;;;;4.82;3.53;;;;;;;;;;5005022;28;88859;-56
2021/11/26 14:14:46;;;;;;;3.08;2.80;;;;;;;;;;5003945;28;87440;-55
2021/11/26 14:17:14;;;;;;;3.70;3.38;;;;;;;;;;5002427;28;87396;-57
2021/11/26 14:19:52;;;;;;;3.60;3.00;;;;;;;;;;4999682;28;86914;-58
2021/11/26 14:22:21;;;;;;;3.28;2.60;;;;;;;;;;5001500;28;89559;-58
2021/11/26 14:24:52;;;;;;;3.20;2.90;;;;;;;;;;5001497;28;89710;-56
2021/11/26 14:27:30;;;;;;;3.70;3.25;;;;;;;;;;5002122;28;86962;-59
2021/11/26 14:30:10;;;;;;;3.00;2.75;;;;;;;;;;5001994;28;87566;-60
2021/11/26 14:32:39;;;;;;;4.20;3.80;;;;;;;;;;5001820;28;88595;-59
2021/11/26 14:35:13;;;;;;;3.70;3.38;;;;;;;;;;5002272;28;86971;-58
2021/11/26 14:37:41;;;;;;;5.00;4.32;;;;;;;;;;4981825;28;87233;-59
2021/11/26 14:40:23;;;;;;;4.25;3.85;;;;;;;;;;4985083;28;86597;-59
2021/11/26 14:43:07;;;;;;;5.32;4.82;;;;;;;;;;5002443;28;87450;-59
2021/11/26 14:45:37;;;;;;;5.30;4.63;;;;;;;;;;5003057;28;88360;-55
2021/11/26 14:48:21;;;;;;;4.60;3.92;;;;;;;;;;4986365;28;88250;-58
2021/11/26 14:51:02;;;;;;;5.60;5.10;;;;;;;;;;5000002;28;87473;-57
2021/11/26 14:53:29;;;;;;;5.38;4.78;;;;;;;;;;5001327;28;87755;-58
2021/11/26 14:55:56;;;;;;;10.57;3.92;;;;;;;;;;5002001;28;88368;-58
2021/11/26 14:58:23;;;;;;;4.40;4.00;;;;;;;;;;5001284;28;87084;-59
2021/11/26 15:00:52;;;;;;;5.53;5.03;;;;;;;;;;5002605;28;86919;-58
2021/11/26 15:03:20;;;;;;;9.95;6.40;;;;;;;;;;5002766;28;88926;-58